Washington, District of Columbia
Traffic Map
Current Weather Conditions
Washington, District of Columbia
Overcast Light Rain
Overcast
77°
Feels Like: 79°
Wind Chill: 77° Ceiling: 6000
Heat Index: 79° Visibility: 10mi
Dew Point: 70° Wind: 7mph
Humidity: 78% Direction: 360° (N)
Pressure: 29.87in Gusts: 0mph
Raw Report DataKDCA 240817Z 36006KT 10SM -RA BKN060 BKN090 OVC130 25/21 A2987 RMK AO2 RAB0754 P0000
Traffic Incident Summary
Active as of:
Severity:
Category:
InformationThere was an issue retrieving the traffic information for this location. Please try a different location or try again shortly.
Advertisements
Track Severe Weather on mobile